Time;durP1;ratioP1;P1;durP2;ratioP2;P2;SDS_P1;SDS_P2;PMS_P1;PMS_P2;Temp;Humidity;BMP_temperature;BMP_pressure;BME280_temperature;BME280_humidity;BME280_pressure;Samples;Min_cycle;Max_cycle;Signal;HPM_P1;HPM_P2
2021/09/29 00:01:15;;;;;;;15.15;7.68;;;;;;;4.71;75.15;101675.31;5056687;28;20116;-62
2021/09/29 00:03:40;;;;;;;15.68;7.78;;;;;;;4.68;75.06;101676.25;5054742;28;20098;-61
2021/09/29 00:06:06;;;;;;;18.80;8.15;;;;;;;4.64;75.58;101669.28;5056384;28;20032;-62
2021/09/29 00:08:31;;;;;;;16.65;8.00;;;;;;;4.65;75.59;101679.00;5055197;28;20072;-62
2021/09/29 00:10:57;;;;;;;15.20;7.60;;;;;;;4.57;75.87;101673.88;5056796;28;20480;-62
2021/09/29 00:13:24;;;;;;;18.67;7.80;;;;;;;4.62;75.53;101680.84;5054309;28;20094;-61
2021/09/29 00:15:53;;;;;;;13.32;7.72;;;;;;;4.65;75.58;101678.09;5056343;28;20477;-62
2021/09/29 00:18:20;;;;;;;15.20;7.68;;;;;;;4.60;75.86;101683.56;5056427;28;20029;-61
2021/09/29 00:20:45;;;;;;;17.23;7.47;;;;;;;4.53;76.17;101674.00;5056237;28;20025;-62
2021/09/29 00:23:11;;;;;;;12.93;6.90;;;;;;;4.51;75.86;101670.50;5053286;28;20086;-62
2021/09/29 00:25:36;;;;;;;13.23;7.53;;;;;;;4.57;75.87;101694.22;5053590;28;20037;-62
2021/09/29 00:28:02;;;;;;;12.95;6.93;;;;;;;4.56;76.14;101695.13;5053551;28;20078;-62
2021/09/29 00:30:31;;;;;;;13.27;7.63;;;;;;;4.52;75.79;101686.41;5053516;28;20048;-61
2021/09/29 00:33:01;;;;;;;12.75;8.00;;;;;;;4.48;75.67;101683.84;5053239;28;20090;-61
2021/09/29 00:35:27;;;;;;;16.23;7.28;;;;;;;4.49;76.15;101688.25;5051601;28;20108;-61
2021/09/29 00:37:52;;;;;;;14.05;7.65;;;;;;;4.49;75.87;101685.59;5053257;28;20120;-61
2021/09/29 00:40:18;;;;;;;13.68;7.10;;;;;;;4.48;76.18;101690.03;5052749;28;20442;-62
2021/09/29 00:42:43;;;;;;;15.27;7.45;;;;;;;4.45;76.05;101683.03;5034718;28;20107;-62
2021/09/29 00:45:09;;;;;;;19.42;8.00;;;;;;;4.45;76.34;101682.13;5034631;28;20036;-62
2021/09/29 00:47:36;;;;;;;14.40;7.18;;;;;;;4.44;76.14;101683.94;5047360;28;20086;-62
2021/09/29 00:50:03;;;;;;;12.60;7.15;;;;;;;4.38;76.53;101678.78;5052668;28;20489;-61
2021/09/29 00:52:31;;;;;;;14.95;7.20;;;;;;;4.41;76.91;101685.78;5053403;28;20032;-60
2021/09/29 00:54:56;;;;;;;12.93;7.07;;;;;;;4.37;75.95;101677.06;5053282;28;20116;-60
2021/09/29 00:57:22;;;;;;;12.68;7.80;;;;;;;4.38;76.58;101680.56;5042839;28;20108;-59
2021/09/29 00:59:49;;;;;;;14.65;7.55;;;;;;;4.38;76.65;101686.75;5033042;28;20034;-61
2021/09/29 01:02:14;;;;;;;16.88;6.93;;;;;;;4.34;76.26;101676.25;5033083;28;20040;-61
2021/09/29 01:04:40;;;;;;;13.35;7.97;;;;;;;4.27;76.01;101671.09;5033195;28;20112;-61
2021/09/29 01:07:31;;;;;;;13.60;7.38;;;;;;;4.44;76.34;101680.41;5033341;28;20470;-62
2021/09/29 01:10:13;;;;;;;13.88;7.97;;;;;;;4.35;76.32;101673.56;5032621;28;20048;-61
2021/09/29 01:12:57;;;;;;;19.63;7.55;;;;;;;4.34;76.43;101679.78;5032970;28;20052;-60
2021/09/29 01:15:28;;;;;;;13.75;7.85;;;;;;;4.33;76.49;101683.31;5032898;28;20033;-62
2021/09/29 01:18:09;;;;;;;15.25;7.40;;;;;;;4.40;76.72;101689.34;5033075;28;20037;-62
2021/09/29 01:20:42;;;;;;;13.80;7.65;;;;;;;4.33;76.84;101677.16;5032482;28;20428;-61
2021/09/29 01:23:22;;;;;;;13.90;7.90;;;;;;;4.32;76.63;101684.22;5032742;28;20029;-61
2021/09/29 01:25:51;;;;;;;17.55;8.45;;;;;;;4.30;76.84;101680.75;5032388;28;20083;-62
2021/09/29 01:28:20;;;;;;;17.30;9.20;;;;;;;4.28;76.59;101679.91;5036576;28;20037;-61
2021/09/29 01:30:46;;;;;;;17.17;9.68;;;;;;;4.24;76.53;101683.56;5050852;28;20054;-62
2021/09/29 01:33:12;;;;;;;17.73;8.85;;;;;;;4.21;76.81;101680.97;5052118;28;20078;-62
2021/09/29 01:35:38;;;;;;;18.50;9.40;;;;;;;4.20;76.95;101684.53;5052114;28;20057;-62
2021/09/29 01:38:05;;;;;;;23.52;9.57;;;;;;;4.18;76.29;101689.88;5050249;28;20063;-62
2021/09/29 01:40:31;;;;;;;18.80;9.10;;;;;;;4.16;76.81;101692.56;5051188;28;20029;-61
2021/09/29 01:42:57;;;;;;;19.20;9.05;;;;;;;4.16;76.75;101691.69;5052216;28;20163;-61
2021/09/29 01:45:22;;;;;;;20.60;10.85;;;;;;;4.12;77.26;101682.06;5052209;28;20029;-61
2021/09/29 01:47:48;;;;;;;26.65;11.38;;;;;;;3.96;77.51;101649.75;5051753;28;20028;-62
2021/09/29 01:50:28;;;;;;;22.20;11.02;;;;;;;4.15;76.99;101687.28;5038280;28;20025;-60
2021/09/29 01:52:57;;;;;;;22.58;10.57;;;;;;;4.14;77.57;101677.59;5032049;28;20029;-61
2021/09/29 01:55:23;;;;;;;25.23;11.90;;;;;;;4.10;77.42;101676.81;5031573;28;20030;-60
2021/09/29 01:57:50;;;;;;;23.80;10.65;;;;;;;4.07;77.60;101674.22;5030069;28;20150;-62
2021/09/29 02:00:19;;;;;;;20.05;11.77;;;;;;;3.99;76.99;101655.88;5040190;28;20028;-61
2021/09/29 02:02:45;;;;;;;25.83;10.85;;;;;;;4.12;77.35;101682.94;5050395;28;20029;-61
2021/09/29 02:05:12;;;;;;;21.90;11.55;;;;;;;4.10;77.38;101682.13;5051246;28;20116;-63
2021/09/29 02:07:38;;;;;;;20.45;11.75;;;;;;;4.11;77.13;101680.31;5051109;28;20107;-61
2021/09/29 02:10:06;;;;;;;21.20;11.60;;;;;;;4.12;77.75;101685.59;5047384;28;20039;-62
2021/09/29 02:12:32;;;;;;;32.55;12.27;;;;;;;4.13;78.01;101686.47;5031414;28;20056;-61
2021/09/29 02:14:57;;;;;;;22.58;12.20;;;;;;;4.13;77.74;101690.00;5031402;28;20037;-61
2021/09/29 02:17:23;;;;;;;19.50;11.43;;;;;;;4.14;77.58;101691.75;5031478;28;20045;-62
2021/09/29 02:19:49;;;;;;;30.05;13.05;;;;;;;4.12;78.11;101690.03;5031109;28;20038;-61
2021/09/29 02:22:16;;;;;;;22.08;12.20;;;;;;;4.03;77.43;101675.19;5032105;28;20026;-61
2021/09/29 02:24:46;;;;;;;23.67;12.57;;;;;;;4.14;77.79;101691.75;5031546;28;20035;-60
2021/09/29 02:27:12;;;;;;;21.67;12.20;;;;;;;4.07;77.42;101682.16;5030696;28;20483;-61
2021/09/29 02:29:38;;;;;;;19.25;11.95;;;;;;;4.10;77.27;101684.78;5031032;28;20040;-60
2021/09/29 02:32:04;;;;;;;24.27;12.35;;;;;;;4.10;77.66;101682.13;5031033;28;20041;-61
2021/09/29 02:34:29;;;;;;;25.48;12.23;;;;;;;3.83;77.67;101634.13;5030982;28;20041;-62
2021/09/29 02:36:55;;;;;;;28.27;12.30;;;;;;;4.06;77.26;101685.72;5030650;28;20037;-62
2021/09/29 02:39:20;;;;;;;27.52;11.70;;;;;;;4.09;77.55;101685.66;5031224;28;20037;-60
2021/09/29 02:41:46;;;;;;;30.17;12.55;;;;;;;4.09;77.53;101680.34;5032198;28;20029;-61
2021/09/29 02:44:12;;;;;;;26.15;13.30;;;;;;;4.08;77.17;101683.91;5030738;28;20029;-62
2021/09/29 02:46:40;;;;;;;26.13;12.57;;;;;;;4.08;77.55;101681.25;5030909;28;20061;-62
2021/09/29 02:49:06;;;;;;;28.02;11.90;;;;;;;4.07;77.23;101689.25;5030882;28;20481;-61
2021/09/29 02:51:32;;;;;;;21.83;11.27;;;;;;;4.02;77.63;101668.16;5030803;28;20026;-61
2021/09/29 02:53:58;;;;;;;20.05;11.40;;;;;;;4.06;77.34;101679.56;5031267;28;20040;-61
2021/09/29 02:56:25;;;;;;;25.98;12.20;;;;;;;4.04;77.47;101682.25;5031094;28;20033;-61
2021/09/29 02:58:51;;;;;;;19.95;11.05;;;;;;;4.02;77.08;101673.47;5029596;28;20052;-61
2021/09/29 03:01:16;;;;;;;22.17;11.05;;;;;;;4.01;77.21;101680.56;5030434;28;20136;-62
2021/09/29 03:03:42;;;;;;;23.30;12.32;;;;;;;4.01;77.51;101672.59;5031338;28;20499;-61
2021/09/29 03:06:07;;;;;;;18.58;11.50;;;;;;;4.01;76.95;101685.84;5030893;28;20370;-62
2021/09/29 03:08:33;;;;;;;25.05;12.38;;;;;;;4.01;77.00;101679.66;5030580;28;20065;-61
2021/09/29 03:10:58;;;;;;;20.30;11.43;;;;;;;4.00;77.22;101689.41;5030358;28;20128;-59
2021/09/29 03:13:24;;;;;;;25.08;11.88;;;;;;;3.99;77.08;101681.47;5031401;28;20107;-61
2021/09/29 03:15:50;;;;;;;21.20;11.80;;;;;;;3.99;77.16;101681.47;5030715;28;20041;-57
2021/09/29 03:18:17;;;;;;;20.55;12.20;;;;;;;3.99;77.46;101689.44;5030769;28;20037;-61
2021/09/29 03:20:42;;;;;;;23.17;11.90;;;;;;;3.99;77.31;101689.44;5030480;28;20042;-61
2021/09/29 03:23:08;;;;;;;23.45;11.77;;;;;;;4.01;77.33;101696.47;5030399;28;20033;-61
2021/09/29 03:25:34;;;;;;;27.60;12.02;;;;;;;4.04;77.47;101692.84;5031115;28;20034;-61
2021/09/29 03:27:59;;;;;;;21.17;11.85;;;;;;;3.83;77.58;101652.69;5030997;28;20069;-62
2021/09/29 03:30:25;;;;;;;19.45;11.25;;;;;;;3.86;77.58;101657.03;5030647;28;20742;-62
2021/09/29 03:32:51;;;;;;;21.83;11.68;;;;;;;4.13;77.42;101695.28;5028859;28;20076;-60
2021/09/29 03:35:16;;;;;;;26.77;12.85;;;;;;;4.19;77.62;101698.72;5030005;28;20376;-62
2021/09/29 03:37:43;;;;;;;19.52;10.85;;;;;;;4.27;77.02;101700.28;5030727;28;20045;-61
2021/09/29 03:40:11;;;;;;;19.80;10.88;;;;;;;4.35;76.71;101700.09;5030736;28;20061;-62
2021/09/29 03:42:38;;;;;;;20.50;11.65;;;;;;;4.43;76.26;101698.09;5030499;28;20032;-63
2021/09/29 03:45:05;;;;;;;18.27;11.18;;;;;;;4.29;76.17;101649.84;5031130;28;20042;-62
2021/09/29 03:47:31;;;;;;;18.25;10.90;;;;;;;4.65;76.15;101705.53;5030708;28;20076;-62
2021/09/29 03:49:57;;;;;;;19.23;11.32;;;;;;;4.74;75.54;101699.97;5029933;28;20029;-61
2021/09/29 03:52:23;;;;;;;22.02;11.32;;;;;;;4.71;75.76;101668.22;5030115;28;20116;-62
2021/09/29 03:54:48;;;;;;;18.35;11.32;;;;;;;5.07;74.72;101699.13;5029931;28;20441;-62
2021/09/29 03:57:14;;;;;;;20.70;11.70;;;;;;;5.21;74.27;101701.38;5030794;28;20389;-62
2021/09/29 03:59:39;;;;;;;21.20;10.80;;;;;;;5.37;73.84;101704.47;5030314;28;20036;-62
2021/09/29 04:02:05;;;;;;;17.52;10.73;;;;;;;5.54;73.44;101703.13;5032912;28;20039;-62
2021/09/29 04:04:31;;;;;;;18.17;10.95;;;;;;;5.69;73.06;101702.69;5033485;28;20032;-62
2021/09/29 04:06:57;;;;;;;20.38;11.07;;;;;;;5.91;71.88;101714.44;5034302;28;20370;-62
2021/09/29 04:09:22;;;;;;;19.58;10.15;;;;;;;6.14;71.63;101704.00;5032260;28;20048;-62
2021/09/29 04:11:47;;;;;;;19.65;11.05;;;;;;;6.64;70.11;101710.34;5033676;28;20041;-61
2021/09/29 04:14:15;;;;;;;16.88;10.55;;;;;;;7.48;67.23;101691.44;5033829;28;20033;-61
2021/09/29 04:16:41;;;;;;;23.27;9.82;;;;;;;8.32;64.52;101685.47;5034399;28;20083;-61
2021/09/29 04:19:06;;;;;;;19.60;10.27;;;;;;;8.88;61.89;101676.03;5033675;28;20026;-62
2021/09/29 04:21:32;;;;;;;21.60;10.13;;;;;;;9.66;59.98;101696.59;5033362;28;20040;-62
2021/09/29 04:23:57;;;;;;;24.45;10.80;;;;;;;10.29;57.45;101707.91;5032968;28;20079;-61
2021/09/29 04:26:23;;;;;;;22.17;10.00;;;;;;;10.93;56.09;101704.75;5033550;28;20040;-62
2021/09/29 04:28:49;;;;;;;17.42;9.27;;;;;;;11.45;53.85;101707.38;5033179;28;20117;-62
2021/09/29 04:31:15;;;;;;;19.40;9.98;;;;;;;11.52;53.14;101705.19;5033158;28;20033;-62
2021/09/29 04:33:41;;;;;;;22.70;10.02;;;;;;;11.59;52.94;101703.03;5033001;28;20392;-64
2021/09/29 04:36:06;;;;;;;17.00;9.93;;;;;;;12.00;52.01;101710.63;5033837;28;20037;-63
2021/09/29 04:38:31;;;;;;;22.58;10.07;;;;;;;12.48;50.42;101709.72;5034336;28;20461;-62
2021/09/29 04:40:57;;;;;;;20.35;10.02;;;;;;;12.82;49.14;101706.88;5033044;28;20029;-61
2021/09/29 04:43:22;;;;;;;22.23;10.57;;;;;;;13.28;47.69;101712.13;5033272;28;20052;-63
2021/09/29 04:45:48;;;;;;;22.80;9.95;;;;;;;13.74;46.41;101699.44;5033396;28;20117;-62
2021/09/29 04:48:13;;;;;;;20.20;10.57;;;;;;;14.03;45.60;101694.00;5033390;28;20029;-62
2021/09/29 04:50:39;;;;;;;20.05;10.70;;;;;;;14.27;45.10;101713.06;5033946;28;20499;-62
2021/09/29 04:53:04;;;;;;;20.77;10.88;;;;;;;14.48;44.71;101701.81;5033604;28;20033;-63
2021/09/29 04:55:30;;;;;;;20.77;10.32;;;;;;;14.82;43.41;101710.31;5033542;28;20109;-63
2021/09/29 04:57:56;;;;;;;24.35;12.00;;;;;;;15.44;42.07;101697.09;5031205;28;20453;-62
2021/09/29 05:00:22;;;;;;;25.33;11.38;;;;;;;16.25;40.60;101702.09;5033869;28;20109;-63
2021/09/29 05:02:49;;;;;;;25.90;11.57;;;;;;;17.03;38.84;101697.97;5032831;28;20034;-63
2021/09/29 05:05:15;;;;;;;25.17;10.13;;;;;;;17.44;37.19;101662.31;5033263;28;20052;-62
2021/09/29 05:07:41;;;;;;;24.75;11.98;;;;;;;18.12;35.83;101694.75;5032516;28;20560;-62
2021/09/29 05:10:14;;;;;;;21.40;10.55;;;;;;;18.66;36.01;101705.63;5033219;28;20084;-62
2021/09/29 05:12:39;;;;;;;25.77;10.85;;;;;;;18.88;34.77;101691.06;5032169;28;20025;-63
2021/09/29 05:15:05;;;;;;;30.85;11.57;;;;;;;19.16;34.03;101704.13;5032794;28;20026;-62
2021/09/29 05:17:30;;;;;;;26.88;11.45;;;;;;;19.17;33.92;101701.31;5032205;28;20033;-62
2021/09/29 05:19:56;;;;;;;25.75;13.02;;;;;;;19.30;33.70;101697.50;5031827;28;20040;-62
2021/09/29 05:22:21;;;;;;;25.55;12.18;;;;;;;19.59;33.16;101699.47;5032698;28;20037;-62
2021/09/29 05:24:47;;;;;;;21.92;11.60;;;;;;;20.10;32.46;101705.81;5032642;28;20080;-60
2021/09/29 05:27:13;;;;;;;19.92;11.55;;;;;;;20.62;30.94;101693.78;5032474;28;20037;-63
2021/09/29 05:29:42;;;;;;;20.40;11.02;;;;;;;21.72;29.78;101699.69;5032442;28;20029;-62
2021/09/29 05:32:08;;;;;;;26.27;11.57;;;;;;;23.01;27.74;101692.25;5033459;28;20045;-63
2021/09/29 05:34:34;;;;;;;20.60;10.65;;;;;;;24.25;25.52;101696.56;5032428;28;20187;-62
2021/09/29 05:37:00;;;;;;;22.35;10.85;;;;;;;25.14;24.33;101702.19;5031918;28;20091;-64
2021/09/29 05:39:25;;;;;;;19.52;10.95;;;;;;;26.04;22.80;101697.41;5031956;28;20041;-65
2021/09/29 05:41:51;;;;;;;18.48;10.85;;;;;;;27.10;21.25;101700.56;5033573;28;20443;-62
2021/09/29 05:44:16;;;;;;;19.35;10.63;;;;;;;27.94;20.46;101697.44;5032596;28;20102;-62
2021/09/29 05:46:42;;;;;;;18.58;9.30;;;;;;;28.69;19.48;101695.47;5031594;28;20083;-63
2021/09/29 05:49:07;;;;;;;15.07;9.65;;;;;;;29.42;18.50;101697.06;5031861;28;20246;-63
2021/09/29 05:51:33;;;;;;;20.35;9.38;;;;;;;29.72;18.08;101683.00;5031017;28;20033;-63
2021/09/29 05:53:58;;;;;;;17.85;8.90;;;;;;;30.33;17.21;101697.81;5031395;28;20037;-63
2021/09/29 05:56:24;;;;;;;13.65;8.30;;;;;;;30.61;16.62;101694.91;5031771;28;20041;-62
2021/09/29 05:58:49;;;;;;;14.80;8.45;;;;;;;30.85;16.88;101689.78;5042649;28;20038;-63
2021/09/29 06:01:16;;;;;;;15.02;8.30;;;;;;;30.87;16.56;101692.38;5040808;28;20037;-58
2021/09/29 06:03:41;;;;;;;12.52;8.15;;;;;;;30.86;16.43;101665.75;5038755;28;20025;-62
2021/09/29 06:06:07;;;;;;;16.75;8.00;;;;;;;30.76;16.47;101660.69;5040741;28;20491;-62
2021/09/29 06:08:32;;;;;;;11.00;7.40;;;;;;;31.12;15.96;101694.44;5039584;28;20078;-64
2021/09/29 06:10:58;;;;;;;9.23;7.38;;;;;;;31.17;15.76;101698.25;5039990;28;20032;-61
2021/09/29 06:13:24;;;;;;;11.55;7.30;;;;;;;30.53;16.08;101683.19;5038547;28;20045;-64
2021/09/29 06:15:50;;;;;;;12.02;7.50;;;;;;;30.35;16.64;101695.69;5039033;28;20501;-63
2021/09/29 06:18:16;;;;;;;12.05;7.30;;;;;;;30.22;16.83;101657.84;5040021;28;20520;-64
2021/09/29 06:20:45;;;;;;;18.08;7.20;;;;;;;30.95;16.94;101692.13;5038966;28;20025;-63
2021/09/29 06:23:10;;;;;;;13.45;7.45;;;;;;;31.71;15.56;101694.47;5040374;28;20037;-61
2021/09/29 06:25:36;;;;;;;15.48;8.00;;;;;;;32.19;15.20;101682.94;5039352;28;20037;-64
2021/09/29 06:28:02;;;;;;;12.70;7.85;;;;;;;32.53;14.48;101681.84;5042054;28;20036;-63
2021/09/29 06:30:27;;;;;;;15.65;7.38;;;;;;;32.46;14.67;101690.25;5051411;28;20044;-62
2021/09/29 06:32:53;;;;;;;15.80;7.78;;;;;;;32.47;14.52;101697.50;5044240;28;20533;-66
2021/09/29 06:35:18;;;;;;;14.88;8.90;;;;;;;32.70;14.61;101691.31;5034523;28;20034;-67
2021/09/29 06:37:44;;;;;;;16.88;8.32;;;;;;;32.71;14.44;101695.78;5030479;28;20033;-66
2021/09/29 06:40:12;;;;;;;15.23;7.70;;;;;;;32.86;14.72;101698.19;5043516;28;20786;-65
2021/09/29 06:42:38;;;;;;;11.07;7.38;;;;;;;33.25;14.32;101692.50;5050713;28;20032;-68
2021/09/29 06:45:09;;;;;;;11.63;8.00;;;;;;;33.80;14.00;101696.34;5042805;28;20027;-66
2021/09/29 06:47:38;;;;;;;13.73;7.65;;;;;;;34.11;13.51;101700.00;5031171;28;20458;-66
2021/09/29 06:50:04;;;;;;;15.18;7.55;;;;;;;33.97;13.12;101665.13;5029885;28;20037;-66
2021/09/29 06:52:30;;;;;;;18.25;7.70;;;;;;;34.07;13.34;101659.88;5028896;28;20458;-66
2021/09/29 06:54:55;;;;;;;14.45;7.68;;;;;;;34.75;12.65;101682.72;5030286;28;20163;-66
2021/09/29 06:57:21;;;;;;;14.65;6.65;;;;;;;35.20;12.58;101683.19;5031269;28;20033;-64
2021/09/29 06:59:46;;;;;;;15.85;6.97;;;;;;;35.46;11.84;101689.31;5031303;28;20022;-66
2021/09/29 07:02:11;;;;;;;10.85;6.50;;;;;;;35.37;11.76;101691.66;5030699;28;20040;-66
2021/09/29 07:04:37;;;;;;;11.60;6.90;;;;;;;35.82;11.78;101687.28;5029330;28;20033;-65
2021/09/29 07:07:02;;;;;;;13.55;6.93;;;;;;;35.89;11.60;101693.53;5031908;28;20029;-65
2021/09/29 07:09:28;;;;;;;10.35;6.43;;;;;;;35.64;11.49;101696.69;5031382;28;20040;-66
2021/09/29 07:11:53;;;;;;;7.72;5.35;;;;;;;35.84;11.61;101687.03;5030660;28;20426;-64
2021/09/29 07:14:20;;;;;;;13.30;5.53;;;;;;;36.06;10.87;101695.56;5030737;28;20030;-66
2021/09/29 07:16:46;;;;;;;8.50;5.72;;;;;;;36.10;11.20;101691.16;5031851;28;20036;-65
2021/09/29 07:19:12;;;;;;;9.85;5.47;;;;;;;36.20;11.68;101705.31;5030638;28;20476;-66
2021/09/29 07:21:37;;;;;;;7.45;5.15;;;;;;;35.84;11.42;101698.19;5029632;28;20491;-68
2021/09/29 07:24:04;;;;;;;7.95;5.25;;;;;;;35.41;11.96;101664.13;5042637;28;20033;-67
2021/09/29 07:26:30;;;;;;;7.97;5.03;;;;;;;35.40;12.02;101685.59;5047278;28;20071;-63
2021/09/29 07:28:55;;;;;;;5.82;5.25;;;;;;;34.69;12.11;101686.47;5030669;28;20061;-66
2021/09/29 07:31:21;;;;;;;5.88;5.25;;;;;;;34.62;12.55;101689.38;5030742;28;20048;-65
2021/09/29 07:33:46;;;;;;;5.72;5.15;;;;;;;34.39;12.49;101684.59;5044280;28;20380;-66
2021/09/29 07:36:12;;;;;;;8.95;4.38;;;;;;;34.28;12.69;101685.41;5053507;28;20079;-67
2021/09/29 07:38:39;;;;;;;9.68;5.15;;;;;;;33.72;12.78;101641.09;5040359;28;20465;-66
2021/09/29 07:41:05;;;;;;;7.20;4.90;;;;;;;32.64;13.57;101667.28;5032539;28;20039;-64
2021/09/29 07:43:30;;;;;;;7.25;4.88;;;;;;;31.37;15.05;101675.22;5033750;28;20041;-65
2021/09/29 07:45:56;;;;;;;6.43;4.88;;;;;;;29.38;16.67;101658.00;5052570;28;20392;-68
2021/09/29 07:48:21;;;;;;;7.70;5.05;;;;;;;27.48;18.65;101681.19;5050652;28;20074;-67
2021/09/29 07:50:46;;;;;;;6.55;4.78;;;;;;;25.61;20.66;101680.47;5052594;28;20466;-70
2021/09/29 07:53:14;;;;;;;10.77;5.40;;;;;;;23.59;23.25;101667.13;5053605;28;20029;-66
2021/09/29 07:55:40;;;;;;;7.82;5.28;;;;;;;22.03;25.28;101680.28;5053602;28;20064;-66
2021/09/29 07:58:06;;;;;;;8.40;5.50;;;;;;;20.81;27.53;101684.78;5053249;28;20111;-66
2021/09/29 08:00:31;;;;;;;12.00;5.57;;;;;;;20.04;29.24;101685.47;5033782;28;20124;-66
2021/09/29 08:02:57;;;;;;;8.93;5.43;;;;;;;19.27;30.22;101666.03;5046835;28;20036;-63
2021/09/29 08:05:22;;;;;;;8.68;5.10;;;;;;;18.87;31.37;101683.09;5064222;28;20025;-67
2021/09/29 08:07:50;;;;;;;7.50;5.13;;;;;;;18.27;32.10;101697.16;5069001;28;20045;-66
2021/09/29 08:10:16;;;;;;;9.13;6.05;;;;;;;17.89;33.07;101683.06;5046451;28;20060;-65
2021/09/29 08:12:42;;;;;;;10.10;5.70;;;;;;;17.50;33.92;101678.06;5049769;28;20066;-66
2021/09/29 08:15:15;;;;;;;10.10;5.68;;;;;;;17.32;34.26;101689.38;5053832;28;20099;-66
2021/09/29 08:17:45;;;;;;;9.98;5.78;;;;;;;16.94;34.88;101672.44;5058108;28;20025;-66
2021/09/29 08:20:15;;;;;;;10.20;5.43;;;;;;;16.66;35.27;101687.28;5068393;28;20362;-66
2021/09/29 08:22:42;;;;;;;12.60;5.97;;;;;;;16.29;35.61;101649.53;5038049;28;20036;-68
2021/09/29 08:30:25;;;;;;;5.80;4.53;;;;;;;15.74;37.73;101671.56;5061667;28;20028;-66
2021/09/29 08:33:10;;;;;;;9.20;5.10;;;;;;;15.49;37.98;101670.63;5056168;28;20061;-66
2021/09/29 08:38:37;;;;;;;7.40;5.07;;;;;;;15.32;38.78;101667.31;5035647;28;20036;-67
2021/09/29 08:41:23;;;;;;;6.60;4.72;;;;;;;15.50;38.38;101673.22;5062458;28;20410;-67
2021/09/29 08:43:55;;;;;;;10.20;5.45;;;;;;;15.58;38.63;101661.88;5035434;28;20041;-67
2021/09/29 08:46:30;;;;;;;7.07;4.45;;;;;;;15.57;38.44;101667.38;5038510;28;20480;-69
2021/09/29 08:49:05;;;;;;;5.93;4.32;;;;;;;15.53;38.34;101664.03;5063222;28;20433;-65
2021/09/29 08:51:52;;;;;;;6.13;4.70;;;;;;;15.42;38.82;101662.13;5065696;28;20028;-68
2021/09/29 09:16:30;;;;;;;;;;;;;;;15.95;36.88;101658.31;5068397;28;20039;-67
2021/09/29 09:18:55;;;;;;;7.28;3.95;;;;;;;15.56;38.22;101655.72;5059527;28;19943;-67
2021/09/29 09:21:21;;;;;;;9.30;4.68;;;;;;;15.48;38.38;101652.72;5058130;28;20032;-67
2021/09/29 09:23:47;;;;;;;7.55;4.50;;;;;;;15.43;38.78;101649.47;5067813;28;20036;-67
2021/09/29 09:26:24;;;;;;;5.82;4.20;;;;;;;15.51;38.07;101639.00;5034060;28;20357;-63
2021/09/29 09:29:02;;;;;;;7.45;4.82;;;;;;;15.54;38.68;101648.69;5035207;28;20432;-66
2021/09/29 09:31:28;;;;;;;7.40;5.05;;;;;;;15.55;39.29;101661.22;5037006;28;20521;-66
2021/09/29 09:34:00;;;;;;;7.60;5.18;;;;;;;15.58;38.89;101656.47;5039119;28;20116;-65
2021/09/29 09:36:34;;;;;;;9.25;5.22;;;;;;;15.34;38.92;101656.41;5054917;28;20044;-65
2021/09/29 09:39:08;;;;;;;13.98;5.32;;;;;;;15.14;39.48;101658.69;5037164;28;20064;-67
2021/09/29 09:41:34;;;;;;;6.90;5.57;;;;;;;14.88;40.88;101647.03;5027055;28;20483;-64
2021/09/29 09:44:02;;;;;;;7.60;5.47;;;;;;;14.78;41.24;101653.06;5043159;28;20033;-64
2021/09/29 09:46:28;;;;;;;8.82;5.15;;;;;;;14.82;40.86;101648.31;5036095;28;20055;-65
2021/09/29 09:49:15;;;;;;;8.07;5.03;;;;;;;14.87;40.50;101608.44;5038553;28;20034;-64
2021/09/29 09:51:49;;;;;;;7.05;4.82;;;;;;;15.14;40.10;101642.50;5042706;28;20034;-65
2021/09/29 09:54:16;;;;;;;8.35;5.22;;;;;;;15.05;40.17;101635.03;5050166;28;20108;-62
2021/09/29 09:56:45;;;;;;;7.35;5.03;;;;;;;14.97;40.46;101635.63;5014263;28;20103;-63
2021/09/29 09:59:11;;;;;;;8.88;5.10;;;;;;;14.83;41.42;101635.72;5032862;28;20040;-62
2021/09/29 10:01:36;;;;;;;11.68;4.78;;;;;;;14.81;41.80;101634.94;5046821;28;20539;-61
2021/09/29 10:04:13;;;;;;;9.27;5.13;;;;;;;14.81;40.95;101621.47;5064897;28;20036;-62
2021/09/29 10:06:39;;;;;;;7.45;4.82;;;;;;;14.89;41.12;101651.44;5055645;28;20057;-65
2021/09/29 10:09:11;;;;;;;9.15;5.03;;;;;;;14.82;40.92;101639.38;5040293;28;20049;-63
2021/09/29 10:12:29;;;;;;;13.05;5.80;;;;;;;14.77;41.12;101643.25;5059924;28;20036;-64
2021/09/29 10:28:14;;;;;;;6.95;4.63;;;;;;;14.83;40.89;101651.88;5039278;28;20024;-64
2021/09/29 10:30:50;;;;;;;8.00;4.05;;;;;;;14.54;41.38;101646.66;5061793;28;20037;-66
2021/09/29 10:33:22;;;;;;;;;;;;;;;14.82;40.75;101639.38;5048182;28;20870;-63
2021/09/29 10:41:12;;;;;;;5.53;4.28;;;;;;;14.36;42.85;101655.00;5031136;28;20603;-62
2021/09/29 10:49:07;;;;;;;6.80;4.43;;;;;;;14.47;42.10;101636.28;5059292;28;20107;-66
2021/09/29 11:06:16;;;;;;;7.95;4.95;;;;;;;14.41;41.79;101625.91;5037733;28;20033;-66
2021/09/29 11:12:04;;;;;;;6.97;4.97;;;;;;;14.47;41.62;101611.16;5050602;28;20060;-67
2021/09/29 11:33:26;;;;;;;10.80;5.55;;;;;;;13.05;44.54;101601.47;5049051;28;20040;-67
2021/09/29 11:36:07;;;;;;;10.02;4.88;;;;;;;12.97;44.69;101635.16;5045400;28;20467;-69
2021/09/29 12:11:05;;;;;;;7.63;5.63;;;;;;;13.78;43.25;101609.47;5056027;28;20385;-69
2021/09/29 12:16:36;;;;;;;10.80;6.25;;;;;;;14.05;43.16;101614.81;5065712;28;20032;-70
2021/09/29 12:19:09;;;;;;;10.52;6.32;;;;;;;13.86;43.16;101622.38;5044137;28;20186;-68
2021/09/29 12:21:52;;;;;;;7.75;6.05;;;;;;;13.63;43.82;101617.56;5058487;28;20040;-68
2021/09/29 12:24:35;;;;;;;8.20;5.72;;;;;;;13.37;44.31;101604.91;5040906;28;20456;-68
2021/09/29 12:27:02;;;;;;;13.20;6.47;;;;;;;12.96;45.37;101602.03;5044009;28;20072;-69
2021/09/29 12:29:38;;;;;;;9.77;6.70;;;;;;;12.83;45.89;101598.38;5042885;28;20033;-68
2021/09/29 12:35:18;;;;;;;10.70;6.90;;;;;;;13.02;45.21;101595.41;5060096;28;20083;-71
2021/09/29 12:37:58;;;;;;;9.93;6.18;;;;;;;12.98;45.29;101600.09;5038588;28;20494;-70
2021/09/29 12:40:26;;;;;;;8.90;6.28;;;;;;;12.80;45.53;101595.91;5050688;28;20472;-68
2021/09/29 12:43:03;;;;;;;8.63;6.55;;;;;;;12.83;45.20;101603.75;5061637;28;20051;-68
2021/09/29 12:45:33;;;;;;;7.97;6.00;;;;;;;12.61;45.46;101570.16;5049149;28;20481;-68
2021/09/29 12:48:00;;;;;;;10.65;6.13;;;;;;;12.80;45.50;101601.28;5069788;28;20134;-68
2021/09/29 12:50:38;;;;;;;8.57;5.70;;;;;;;12.70;45.58;101601.81;5045142;28;20056;-65
2021/09/29 12:53:28;;;;;;;8.38;6.47;;;;;;;12.47;46.09;101596.00;5034179;28;20135;-68
2021/09/29 12:56:03;;;;;;;12.10;6.90;;;;;;;12.35;46.17;101610.19;5051211;28;20039;-70
2021/09/29 12:58:29;;;;;;;9.55;7.00;;;;;;;12.11;46.54;101585.66;5052743;28;20407;-67
2021/09/29 13:00:56;;;;;;;9.32;7.30;;;;;;;11.94;46.97;101611.66;5061918;28;20044;-69
2021/09/29 13:03:21;;;;;;;13.80;7.47;;;;;;;11.69;47.51;101599.63;5064613;28;20449;-73
2021/09/29 13:05:48;;;;;;;10.27;7.20;;;;;;;11.57;47.95;101603.84;5054919;28;20024;-72
2021/09/29 13:08:14;;;;;;;13.38;7.45;;;;;;;11.43;48.06;101604.63;5032193;28;20757;-70
2021/09/29 13:10:40;;;;;;;14.55;7.88;;;;;;;11.28;48.46;101598.31;5050979;28;20035;-67
2021/09/29 13:13:06;;;;;;;10.38;7.38;;;;;;;11.16;48.93;101605.22;5060823;28;20116;-68
2021/09/29 13:15:32;;;;;;;10.13;7.53;;;;;;;10.97;49.39;101600.00;5050641;28;20441;-67
2021/09/29 13:17:58;;;;;;;11.45;8.20;;;;;;;10.82;49.80;101599.00;5038586;28;20472;-69
2021/09/29 13:20:27;;;;;;;10.10;7.13;;;;;;;10.69;49.91;101598.78;5056381;28;20107;-70
2021/09/29 13:22:57;;;;;;;12.60;7.57;;;;;;;10.56;50.31;101603.94;5064110;28;20416;-70
2021/09/29 13:38:55;;;;;;;13.63;7.70;;;;;;;10.06;51.35;101578.75;5056803;28;20441;-67
2021/09/29 13:41:21;;;;;;;11.05;8.23;;;;;;;10.20;51.30;101608.38;5044593;28;20064;-71
2021/09/29 13:43:46;;;;;;;14.15;8.32;;;;;;;10.20;51.19;101615.53;5061394;28;20032;-63
2021/09/29 13:46:11;;;;;;;14.95;9.20;;;;;;;10.14;51.19;101618.53;5054688;28;20025;-70